• Join FlightAware (Why Join?)
  • Login
  • US Flag 
Rudolph Flight #1: Arrived! 
08:56AM EST


 

Airport Tracker/Info


-or-


 

Live Flight TrackerFlight Track Log ✈ CTL17 ✈ 01-May-2013 ✈ KMBS - KYIP

Flight Track Log - Related Links

Times and Time Zones

All times are in EDT time to prevent confusion due to time zone crossing. See the CTL17 flight status page for this flight to view local times or setup timezone preferences in your user account.

Time Position Orientation Groundspeed Altitude Reporting Facility
EDT Latitude Longitude Course Direction KTS MPH feet Rate Location/Type
04:57PM 43.3904 -84.0180 160° South  Level Estimated
04:58PM 43.3637 -83.9994 153° Southeast  Level FlightAware Approximate
04:59PM 43.3371 -83.9809 153° Southeast  Level FlightAware Approximate
05:00PM 43.3085 -83.9689 160° South  Level Estimated
05:01PM 43.2809 -83.9532 157° South  Level FlightAware Approximate
05:02PM 43.2533 -83.9375 157° South  Level FlightAware Approximate
05:03PM 43.2246 -83.9258 163° South  Level Estimated
05:04PM 43.1964 -83.9124 161° South  Level FlightAware Approximate
05:05PM 43.1682 -83.8990 161° South  Level FlightAware Approximate
05:06PM 43.1399 -83.8856 161° South  Level FlightAware Approximate
05:07PM 43.1113 -83.8741 160° South  Level Estimated
05:07PM 42.8975 -83.7717 160° South 158 182 5,100  Level Cleveland Center
05:08PM 43.0832 -83.8599 160° South  Level FlightAware Approximate
05:08PM 42.8625 -83.7558 162° South 160 184 5,100  Level Cleveland Center
05:09PM 43.0552 -83.8456 160° South  Level FlightAware Approximate
05:09PM 42.8214 -83.7367 161° South 160 184 5,100  Level Cleveland Center
05:10PM 43.0272 -83.8314 160° South  Level FlightAware Approximate
05:10PM 42.7758 -83.7258 170° South 158 182 5,100  Level Cleveland Center
05:11PM 42.9992 -83.8172 160° South  Level FlightAware Approximate
05:11PM 42.7344 -83.7097 164° South 159 183 5,100  Level Cleveland Center
05:12PM 42.9712 -83.8030 160° South  Level FlightAware Approximate
05:12PM 42.6911 -83.6992 170° South 156 180 5,000  Level Cleveland Center
05:13PM 42.6478 -83.6856 167° South 157 181 5,000 -180 Level Cleveland Center
05:14PM 42.6042 -83.6722 167° South 164 189 4,700 -420 Descending Cleveland Center
05:15PM 42.5544 -83.6583 168° South 171 197 4,200 -300 Descending Cleveland Center
05:16PM 42.5111 -83.6450 167° South 165 190 4,100 -120 Descending Cleveland Center
05:17PM 42.4678 -83.6317 167° South 153 176 4,000  Descending Cleveland Center
05:18PM 42.4244 -83.6128 162° South 153 176 4,100 -180 Climbing Cleveland Center
05:19PM 42.3811 -83.5939 162° South 164 189 3,700 -780 Descending Cleveland Center
05:20PM 42.3358 -83.5747 163° South 181 208 2,600 -900 Descending Cleveland Center
05:21PM 42.2950 -83.5447 151° Southeast 161 185 1,900 -600 Descending Cleveland Center
05:22PM 42.2642 -83.5236 153° Southeast 119 137 1,400 -540 Descending Cleveland Center
05:24PM 42.2333 -83.5167 160° South  Level FlightAware Approximate